Time;durP1;ratioP1;P1;durP2;ratioP2;P2;SDS_P1;SDS_P2;PMS_P1;PMS_P2;Temp;Humidity;BMP_temperature;BMP_pressure;BME280_temperature;BME280_humidity;BME280_pressure;Samples;Min_cycle;Max_cycle;Signal;HPM_P1;HPM_P2
2022/09/17 00:01:43;;;;;;;7.30;1.83;;;10.70;99.90;;;;;;5114112;28;20266;-88
2022/09/17 00:04:11;;;;;;;6.00;1.10;;;10.70;99.90;;;;;;5113977;28;20208;-88
2022/09/17 00:06:38;;;;;;;4.83;1.37;;;10.80;99.90;;;;;;5113786;28;20280;-88
2022/09/17 00:09:06;;;;;;;6.03;1.50;;;10.90;99.90;;;;;;5113889;28;20212;-89
2022/09/17 00:11:37;;;;;;;3.53;0.90;;;11.00;99.90;;;;;;5114141;28;20200;-89
2022/09/17 00:14:08;;;;;;;7.23;1.30;;;10.90;99.90;;;;;;5113609;28;20217;-88
2022/09/17 00:16:38;;;;;;;9.47;1.20;;;11.00;99.90;;;;;;5113910;28;20269;-86
2022/09/17 00:19:07;;;;;;;7.87;1.50;;;10.90;99.90;;;;;;5113399;28;20262;-86
2022/09/17 00:21:35;;;;;;;8.60;1.33;;;11.10;99.90;;;;;;5114276;28;20295;-86
2022/09/17 00:24:04;;;;;;;7.50;1.30;;;11.00;99.90;;;;;;5113835;28;20205;-86
2022/09/17 00:26:32;;;;;;;6.60;1.27;;;11.20;99.90;;;;;;5113561;28;20205;-86
2022/09/17 00:29:00;;;;;;;5.77;1.53;;;11.20;99.90;;;;;;5113582;28;20632;-86
2022/09/17 00:31:28;;;;;;;5.27;1.50;;;11.10;99.90;;;;;;5113356;28;20277;-89
2022/09/17 00:33:56;;;;;;;8.47;1.60;;;11.20;99.90;;;;;;5113592;28;20200;-86
2022/09/17 00:36:23;;;;;;;4.93;1.60;;;11.10;99.90;;;;;;5113462;28;20227;-87
2022/09/17 00:38:52;;;;;;;6.83;1.57;;;11.00;99.90;;;;;;5113847;28;20185;-86
2022/09/17 00:41:20;;;;;;;7.90;1.50;;;11.10;99.90;;;;;;5113397;28;20205;-86
2022/09/17 00:43:49;;;;;;;4.43;1.20;;;11.20;99.90;;;;;;5113455;28;20193;-86
2022/09/17 00:46:28;;;;;;;9.10;1.88;;;11.20;99.90;;;;;;5112431;28;20932;-86
2022/09/17 00:48:57;;;;;;;3.53;1.00;;;11.30;99.90;;;;;;5113495;28;20201;-86
2022/09/17 00:51:30;;;;;;;5.13;1.03;;;11.40;99.90;;;;;;5113362;28;20203;-86
2022/09/17 00:54:01;;;;;;;7.70;1.60;;;11.30;99.90;;;;;;5113159;28;20213;-86
2022/09/17 00:56:32;;;;;;;8.57;1.43;;;11.10;99.90;;;;;;5116898;28;20571;-86
2022/09/17 00:59:01;;;;;;;7.07;1.50;;;11.00;99.90;;;;;;5117073;28;20189;-86
2022/09/17 01:01:28;;;;;;;8.40;1.53;;;11.00;99.90;;;;;;5115774;28;20204;-88
2022/09/17 01:03:55;;;;;;;8.10;1.67;;;11.10;99.90;;;;;;5117110;28;20668;-89
2022/09/17 01:06:29;;;;;;;8.53;1.70;;;11.10;99.90;;;;;;5117029;28;20205;-88
2022/09/17 01:09:17;;;;;;;9.87;1.90;;;11.00;99.90;;;;;;5117098;28;20193;-88
2022/09/17 01:12:10;;;;;;;7.83;1.90;;;11.10;99.90;;;;;;5117239;28;20211;-90
2022/09/17 01:14:47;;;;;;;6.60;1.40;;;11.10;99.90;;;;;;5119578;28;20231;-88
2022/09/17 01:17:26;;;;;;;5.13;1.90;;;11.10;99.90;;;;;;5119255;28;20224;-89
2022/09/17 01:20:27;;;;;;;8.60;2.00;;;11.10;99.90;;;;;;5120420;28;20200;-92
2022/09/17 01:23:15;;;;;;;9.73;2.37;;;11.10;99.90;;;;;;5118141;28;20210;-89
2022/09/17 01:25:58;;;;;;;8.03;1.53;;;11.00;99.90;;;;;;5117556;28;20198;-89
2022/09/17 01:28:34;;;;;;;7.07;1.70;;;11.00;99.90;;;;;;5117717;28;20235;-88
2022/09/17 01:31:30;;;;;;;10.13;1.80;;;11.10;99.90;;;;;;5117519;28;20384;-88
2022/09/17 01:34:07;;;;;;;10.23;1.83;;;11.10;99.90;;;;;;5116540;28;20644;-89
2022/09/17 01:36:46;;;;;;;11.23;1.83;;;11.30;99.90;;;;;;5117345;28;20211;-90
2022/09/17 01:39:25;;;;;;;8.23;1.90;;;11.20;99.90;;;;;;5117001;28;20568;-90
2022/09/17 01:41:59;;;;;;;11.50;1.87;;;11.10;99.90;;;;;;5116645;28;20811;-90
2022/09/17 01:44:35;;;;;;;7.90;1.80;;;11.10;99.90;;;;;;5116559;28;20650;-89
2022/09/17 01:47:10;;;;;;;4.07;1.63;;;11.20;99.90;;;;;;5116859;28;20205;-90
2022/09/17 01:49:39;;;;;;;7.77;1.83;;;11.10;99.90;;;;;;5116724;28;20201;-89
2022/09/17 01:52:08;;;;;;;8.63;1.63;;;11.20;99.90;;;;;;5116375;28;20203;-89
2022/09/17 01:54:42;;;;;;;7.37;1.80;;;11.30;99.90;;;;;;5116991;28;20660;-89
2022/09/17 01:57:17;;;;;;;8.57;1.90;;;11.30;99.90;;;;;;5116474;28;20586;-89
2022/09/17 01:59:48;;;;;;;12.10;2.00;;;11.30;99.90;;;;;;5116928;28;20196;-87
2022/09/17 02:02:26;;;;;;;7.80;1.57;;;11.30;99.90;;;;;;5116338;27;20196;-87
2022/09/17 02:04:59;;;;;;;6.37;2.00;;;11.50;99.90;;;;;;5116628;28;20195;-87
2022/09/17 02:07:37;;;;;;;6.77;1.97;;;11.40;99.90;;;;;;5115992;28;20187;-88
2022/09/17 02:10:08;;;;;;;8.25;2.10;;;11.50;99.90;;;;;;5116427;28;20441;-87
2022/09/17 02:12:50;;;;;;;6.73;1.80;;;11.50;99.90;;;;;;5116661;28;20203;-87
2022/09/17 02:15:22;;;;;;;7.63;1.90;;;11.40;99.90;;;;;;5116526;28;20233;-88
2022/09/17 02:17:54;;;;;;;11.40;2.63;;;11.40;99.90;;;;;;5116565;28;20225;-87
2022/09/17 02:20:26;;;;;;;7.33;1.53;;;11.40;99.90;;;;;;5116106;28;20198;-86
2022/09/17 02:22:58;;;;;;;9.17;2.00;;;11.30;99.90;;;;;;5116097;28;20202;-87
2022/09/17 02:25:36;;;;;;;7.20;2.10;;;11.30;99.90;;;;;;5116131;28;20202;-87
2022/09/17 02:28:11;;;;;;;10.73;2.23;;;11.30;99.90;;;;;;5115510;28;20680;-87
2022/09/17 02:30:38;;;;;;;10.53;2.00;;;11.30;99.90;;;;;;5116088;28;20553;-87
2022/09/17 02:33:12;;;;;;;9.17;2.40;;;11.20;99.90;;;;;;5115899;28;20213;-89
2022/09/17 02:35:39;;;;;;;8.90;2.10;;;11.20;99.90;;;;;;5116131;28;20203;-86
2022/09/17 02:38:08;;;;;;;7.63;2.40;;;11.00;99.90;;;;;;5115308;28;21021;-87
2022/09/17 02:40:41;;;;;;;8.33;2.07;;;10.90;99.90;;;;;;5115829;28;20212;-87
2022/09/17 02:43:14;;;;;;;10.67;2.30;;;10.80;99.90;;;;;;5115342;28;20191;-88
2022/09/17 02:45:56;;;;;;;13.50;1.97;;;10.80;99.90;;;;;;5116065;28;20209;-87
2022/09/17 02:48:52;;;;;;;11.27;2.03;;;10.80;99.90;;;;;;5115789;28;20178;-87
2022/09/17 02:51:26;;;;;;;11.57;1.93;;;10.80;99.90;;;;;;5115619;28;20189;-86
2022/09/17 02:54:00;;;;;;;13.77;1.83;;;10.70;99.90;;;;;;5115832;28;20208;-88
2022/09/17 02:56:39;;;;;;;11.43;1.90;;;10.70;99.90;;;;;;5116173;28;20196;-87
2022/09/17 02:59:18;;;;;;;10.87;2.00;;;10.60;99.90;;;;;;5115617;28;20228;-88
2022/09/17 03:01:52;;;;;;;13.00;2.33;;;10.50;99.90;;;;;;5115968;28;20203;-88
2022/09/17 03:04:24;;;;;;;15.23;2.63;;;10.50;99.90;;;;;;5115285;28;20640;-88
2022/09/17 03:06:52;;;;;;;13.47;2.50;;;10.40;99.90;;;;;;5115608;28;20203;-87
2022/09/17 03:09:19;;;;;;;20.93;2.10;;;10.40;99.90;;;;;;5115381;28;20629;-88
2022/09/17 03:11:49;;;;;;;9.63;1.93;;;10.40;99.90;;;;;;5115679;28;20208;-87
2022/09/17 03:14:22;;;;;;;8.73;1.73;;;10.40;99.90;;;;;;5115178;28;20220;-88
2022/09/17 03:16:50;;;;;;;10.37;1.93;;;10.30;99.90;;;;;;5115257;28;20659;-88
2022/09/17 03:19:20;;;;;;;12.27;2.47;;;10.20;99.90;;;;;;5113785;28;20224;-88
2022/09/17 03:21:48;;;;;;;9.97;2.40;;;10.20;99.90;;;;;;5115459;28;20204;-88
2022/09/17 03:24:15;;;;;;;10.27;2.03;;;10.10;99.90;;;;;;5115355;28;20208;-89
2022/09/17 03:26:42;;;;;;;13.93;1.83;;;10.20;99.90;;;;;;5115364;28;20210;-88
2022/09/17 03:29:08;;;;;;;16.57;2.77;;;10.20;99.90;;;;;;5115275;28;20193;-87
2022/09/17 03:31:37;;;;;;;10.90;2.63;;;10.20;99.90;;;;;;5115221;28;20191;-88
2022/09/17 03:34:06;;;;;;;17.00;2.92;;;10.30;99.90;;;;;;5114372;28;20777;-89
2022/09/17 03:36:33;;;;;;;12.37;3.03;;;10.20;99.90;;;;;;5115292;28;20209;-89
2022/09/17 03:39:02;;;;;;;13.73;2.37;;;10.30;99.90;;;;;;5115645;28;20781;-87
2022/09/17 03:41:30;;;;;;;14.60;2.27;;;10.40;99.90;;;;;;5114821;28;20206;-88
2022/09/17 03:43:58;;;;;;;13.93;2.50;;;10.50;99.90;;;;;;5114650;28;20197;-89
2022/09/17 03:46:27;;;;;;;12.23;3.07;;;10.40;99.90;;;;;;5114660;28;20201;-88
2022/09/17 03:48:55;;;;;;;18.30;2.93;;;10.40;99.90;;;;;;5114499;28;20227;-88
2022/09/17 03:51:23;;;;;;;8.90;2.10;;;10.50;99.90;;;;;;5114204;28;20215;-89
2022/09/17 03:53:50;;;;;;;9.80;2.07;;;10.40;99.90;;;;;;5114986;28;20208;-91
2022/09/17 03:56:20;;;;;;;13.37;2.73;;;10.40;99.90;;;;;;5114180;28;20280;-91
2022/09/17 03:58:57;;;;;;;18.20;2.40;;;10.50;99.90;;;;;;5114573;28;20599;-88
2022/09/17 04:01:24;;;;;;;22.93;2.43;;;10.60;99.90;;;;;;5114585;28;20200;-92
2022/09/17 04:04:05;;;;;;;12.87;2.70;;;10.70;99.90;;;;;;5114680;28;20208;-89
2022/09/17 04:06:34;;;;;;;16.00;2.53;;;10.80;99.90;;;;;;5114828;28;20188;-88
2022/09/17 04:09:03;;;;;;;13.07;2.67;;;10.80;99.90;;;;;;5114845;28;20279;-92
2022/09/17 04:11:37;;;;;;;18.03;3.13;;;10.80;99.90;;;;;;5114541;28;20229;-92
2022/09/17 04:14:07;;;;;;;16.53;2.60;;;10.80;99.90;;;;;;5114556;28;20603;-91
2022/09/17 04:16:36;;;;;;;13.03;2.30;;;10.80;99.90;;;;;;5114615;28;20185;-91
2022/09/17 04:19:08;;;;;;;9.47;2.50;;;10.80;99.90;;;;;;5114442;28;20236;-91
2022/09/17 04:21:41;;;;;;;10.33;2.27;;;10.70;99.90;;;;;;5114753;28;20215;-92
2022/09/17 04:24:08;;;;;;;12.07;1.93;;;10.70;99.90;;;;;;5114034;28;20205;-90
2022/09/17 04:26:36;;;;;;;11.93;2.17;;;10.80;99.90;;;;;;5114520;28;20189;-93
2022/09/17 04:29:09;;;;;;;12.90;2.40;;;10.80;99.90;;;;;;5114745;28;20648;-92
2022/09/17 04:31:36;;;;;;;13.00;2.03;;;10.80;99.90;;;;;;5118339;28;20634;-92
2022/09/17 04:34:05;;;;;;;14.90;2.37;;;10.80;99.90;;;;;;5118379;28;20207;-92
2022/09/17 04:36:33;;;;;;;10.47;2.00;;;10.80;99.90;;;;;;5118499;28;20204;-93
2022/09/17 04:39:01;;;;;;;14.07;2.63;;;10.90;99.90;;;;;;5118265;28;20236;-92
2022/09/17 04:41:30;;;;;;;10.17;2.33;;;11.00;99.90;;;;;;5118197;28;20197;-91
2022/09/17 04:43:59;;;;;;;10.03;2.23;;;10.90;99.90;;;;;;5118437;28;20201;-91
2022/09/17 04:46:28;;;;;;;10.40;2.03;;;10.80;99.90;;;;;;5118343;28;20214;-89
2022/09/17 04:48:55;;;;;;;9.23;2.37;;;10.80;99.90;;;;;;5118199;28;20212;-89
2022/09/17 04:51:27;;;;;;;16.20;2.43;;;10.70;99.90;;;;;;5117964;28;20201;-91
2022/09/17 04:53:54;;;;;;;12.33;2.40;;;10.60;99.90;;;;;;5117939;28;20223;-90
2022/09/17 04:56:24;;;;;;;11.90;2.20;;;10.60;99.90;;;;;;5117822;28;20686;-92
2022/09/17 04:58:51;;;;;;;12.70;2.53;;;10.60;99.90;;;;;;5118018;28;20251;-91
2022/09/17 05:01:20;;;;;;;9.00;2.37;;;10.60;99.90;;;;;;5117733;28;20189;-92
2022/09/17 05:03:48;;;;;;;15.57;2.33;;;10.60;99.90;;;;;;5117906;28;20188;-92
2022/09/17 05:06:18;;;;;;;9.43;1.53;;;10.60;99.90;;;;;;5117921;28;20247;-91
2022/09/17 05:08:50;;;;;;;14.87;2.13;;;10.60;99.90;;;;;;5117282;28;20185;-93
2022/09/17 05:11:17;;;;;;;12.33;2.03;;;10.50;99.90;;;;;;5117354;28;20196;-91
2022/09/17 05:13:44;;;;;;;14.63;2.00;;;10.50;99.90;;;;;;5117643;28;20199;-91
2022/09/17 05:16:12;;;;;;;8.07;2.13;;;10.60;99.90;;;;;;5117660;28;20203;-92
2022/09/17 05:18:47;;;;;;;8.00;1.70;;;10.60;99.90;;;;;;5117492;28;20231;-90
2022/09/17 05:21:15;;;;;;;11.70;1.97;;;10.50;99.90;;;;;;5117276;28;20289;-90
2022/09/17 05:23:44;;;;;;;6.33;1.50;;;10.60;99.90;;;;;;5117400;28;20226;-90
2022/09/17 05:26:11;;;;;;;11.17;1.73;;;10.60;99.90;;;;;;5117312;28;20193;-90
2022/09/17 05:28:41;;;;;;;7.30;1.60;;;10.50;99.90;;;;;;5116388;28;20435;-91
2022/09/17 05:31:08;;;;;;;8.07;2.10;;;10.70;99.90;;;;;;5117597;28;20227;-92
2022/09/17 05:33:36;;;;;;;7.57;1.87;;;10.70;99.90;;;;;;5117675;28;20205;-92
2022/09/17 05:36:04;;;;;;;5.67;1.40;;;10.70;99.90;;;;;;5117042;28;20199;-92
2022/09/17 05:38:31;;;;;;;8.33;1.80;;;10.80;99.90;;;;;;5117094;28;20219;-92
2022/09/17 05:40:58;;;;;;;7.40;1.60;;;10.80;99.90;;;;;;5116710;28;20214;-91
2022/09/17 05:43:31;;;;;;;10.03;1.90;;;10.80;99.90;;;;;;5116397;28;20205;-91
2022/09/17 05:46:04;;;;;;;9.53;1.90;;;10.80;99.90;;;;;;5117146;28;20200;-92
2022/09/17 05:48:31;;;;;;;7.53;2.27;;;10.80;99.90;;;;;;5117106;28;20208;-92
2022/09/17 05:50:58;;;;;;;7.90;1.63;;;10.80;99.90;;;;;;5123957;27;20678;-90
2022/09/17 05:53:27;;;;;;;9.57;1.73;;;10.80;99.90;;;;;;5137677;27;20235;-89
2022/09/17 05:55:56;;;;;;;7.88;2.10;;;10.90;99.90;;;;;;5137035;27;20520;-92
2022/09/17 05:58:26;;;;;;;6.73;1.73;;;11.00;99.90;;;;;;5138021;27;20269;-88
2022/09/17 06:00:53;;;;;;;9.03;2.07;;;11.00;99.90;;;;;;5139227;27;20219;-89
2022/09/17 06:03:22;;;;;;;7.57;1.93;;;11.00;99.90;;;;;;5147432;27;20206;-89
2022/09/17 06:05:55;;;;;;;11.27;3.13;;;11.10;99.90;;;;;;5151279;27;20222;-90
2022/09/17 06:08:22;;;;;;;8.93;1.67;;;11.10;99.90;;;;;;5147707;27;20228;-88
2022/09/17 06:10:54;;;;;;;5.47;1.67;;;11.20;99.90;;;;;;5147574;27;20205;-88
2022/09/17 06:13:21;;;;;;;7.73;1.70;;;11.20;99.90;;;;;;5146843;27;20264;-88
2022/09/17 06:15:53;;;;;;;12.90;1.90;;;11.20;99.90;;;;;;5146281;27;20225;-88
2022/09/17 06:18:21;;;;;;;10.70;2.70;;;11.30;99.90;;;;;;5146544;27;20212;-87
2022/09/17 06:20:54;;;;;;;6.83;1.73;;;11.30;99.90;;;;;;5136761;27;20225;-91
2022/09/17 06:23:22;;;;;;;6.13;1.67;;;11.30;99.90;;;;;;5137237;27;20208;-89
2022/09/17 06:25:57;;;;;;;8.82;2.40;;;11.40;99.90;;;;;;5138296;27;20945;-86
2022/09/17 06:28:24;;;;;;;10.87;2.20;;;11.50;99.90;;;;;;5136852;27;20247;-89
2022/09/17 06:30:53;;;;;;;8.87;1.90;;;11.70;99.90;;;;;;5136991;27;20186;-87
2022/09/17 06:33:21;;;;;;;7.70;1.60;;;11.70;99.90;;;;;;5136711;27;20648;-91
2022/09/17 06:35:49;;;;;;;4.10;1.90;;;11.70;99.90;;;;;;5135856;27;20588;-88
2022/09/17 06:38:16;;;;;;;6.20;1.60;;;11.70;99.90;;;;;;5136177;27;20671;-87
2022/09/17 06:40:43;;;;;;;9.90;1.90;;;11.60;99.90;;;;;;5136785;27;20296;-88
2022/09/17 06:43:11;;;;;;;6.17;1.80;;;11.60;99.90;;;;;;5136262;27;20206;-88
2022/09/17 06:45:38;;;;;;;9.00;1.77;;;11.70;99.90;;;;;;5136321;27;20223;-89
2022/09/17 06:48:07;;;;;;;10.03;1.47;;;11.70;99.90;;;;;;5136292;27;20194;-91
2022/09/17 06:50:34;;;;;;;11.23;1.80;;;11.70;99.90;;;;;;5116925;27;20199;-87
2022/09/17 06:53:01;;;;;;;8.37;1.87;;;11.80;99.90;;;;;;5115089;28;20205;-90
2022/09/17 06:55:28;;;;;;;7.50;1.53;;;11.80;99.90;;;;;;5114726;28;20216;-88
2022/09/17 06:57:59;;;;;;;4.27;1.37;;;11.70;99.90;;;;;;5115164;28;20207;-88
2022/09/17 07:00:27;;;;;;;9.83;2.30;;;11.80;99.90;;;;;;5114723;28;20596;-88
2022/09/17 07:02:57;;;;;;;8.23;2.57;;;11.90;99.90;;;;;;5116061;28;20221;-87
2022/09/17 07:05:24;;;;;;;6.03;1.37;;;11.70;99.90;;;;;;5116723;28;20678;-86
2022/09/17 07:07:51;;;;;;;6.17;1.10;;;11.60;99.90;;;;;;5114192;28;20205;-93
2022/09/17 07:10:18;;;;;;;8.13;1.77;;;11.60;99.90;;;;;;5122522;27;20206;-93
2022/09/17 07:12:45;;;;;;;2.47;1.10;;;11.70;99.90;;;;;;5117568;27;20537;-95
2022/09/17 07:15:12;;;;;;;4.83;1.43;;;11.70;99.90;;;;;;5114971;28;20222;-93
2022/09/17 07:17:43;;;;;;;6.13;1.50;;;11.80;99.90;;;;;;5115022;28;20197;-86
2022/09/17 07:20:11;;;;;;;4.80;1.03;;;11.80;99.90;;;;;;5115644;28;20298;-92
2022/09/17 07:22:39;;;;;;;6.47;1.40;;;11.80;99.90;;;;;;5114839;28;20209;-91
2022/09/17 07:25:06;;;;;;;6.63;1.53;;;11.90;99.90;;;;;;5114513;28;20530;-88
2022/09/17 07:27:35;;;;;;;8.20;2.23;;;12.10;99.90;;;;;;5114832;28;20210;-87
2022/09/17 07:30:02;;;;;;;11.80;1.57;;;12.10;99.90;;;;;;5115055;28;20205;-89
2022/09/17 07:32:30;;;;;;;7.13;1.47;;;12.10;99.90;;;;;;5116971;27;20189;-91
2022/09/17 07:34:58;;;;;;;6.03;1.57;;;12.20;99.90;;;;;;5126208;27;20595;-89
2022/09/17 07:37:25;;;;;;;6.47;1.40;;;12.30;99.90;;;;;;5117982;28;20225;-93
2022/09/17 07:39:51;;;;;;;6.53;1.77;;;12.30;99.90;;;;;;5113718;28;20226;-93
2022/09/17 07:42:18;;;;;;;8.87;1.87;;;12.30;99.90;;;;;;5120222;27;20194;-88
2022/09/17 07:44:47;;;;;;;7.33;1.43;;;12.20;99.90;;;;;;5115223;27;20198;-87
2022/09/17 07:47:14;;;;;;;8.03;1.57;;;12.40;99.90;;;;;;5125860;27;20195;-86
2022/09/17 07:49:40;;;;;;;5.40;1.93;;;12.50;99.90;;;;;;5120607;27;20222;-87
2022/09/17 07:52:09;;;;;;;11.07;1.50;;;12.60;99.90;;;;;;5131352;27;20214;-87
2022/09/17 07:54:36;;;;;;;7.00;1.33;;;12.70;99.90;;;;;;5127654;27;20210;-86
2022/09/17 07:57:04;;;;;;;3.27;1.10;;;12.60;99.90;;;;;;5127633;27;20227;-84
2022/09/17 07:59:31;;;;;;;9.50;1.37;;;12.80;99.90;;;;;;5116650;27;20225;-87
2022/09/17 08:01:59;;;;;;;6.60;1.30;;;12.80;99.90;;;;;;5114062;28;20543;-88
2022/09/17 08:04:26;;;;;;;5.53;1.17;;;12.70;99.90;;;;;;5114655;28;20202;-88
2022/09/17 08:06:52;;;;;;;3.67;1.20;;;12.60;99.90;;;;;;5121740;28;20207;-88
2022/09/17 08:09:22;;;;;;;4.13;1.17;;;12.60;99.90;;;;;;5125248;28;20635;-87
2022/09/17 08:11:49;;;;;;;7.10;1.87;;;12.60;99.90;;;;;;5135136;28;20294;-86
2022/09/17 08:14:16;;;;;;;5.43;1.30;;;12.50;99.90;;;;;;5133841;28;20230;-88
2022/09/17 08:16:46;;;;;;;5.13;1.10;;;12.40;99.90;;;;;;5133088;28;20194;-88
2022/09/17 08:19:13;;;;;;;3.33;1.00;;;12.30;99.90;;;;;;5131248;28;20571;-89
2022/09/17 08:21:39;;;;;;;4.80;0.97;;;12.40;99.90;;;;;;5118457;28;20286;-85
2022/09/17 08:24:06;;;;;;;7.07;1.10;;;12.60;99.90;;;;;;5113900;28;20290;-85
2022/09/17 08:26:35;;;;;;;2.33;0.90;;;12.70;99.90;;;;;;5112850;28;20203;-86
2022/09/17 08:29:02;;;;;;;6.97;1.30;;;12.80;99.90;;;;;;5113976;28;20194;-87
2022/09/17 08:31:29;;;;;;;5.90;1.97;;;12.80;99.90;;;;;;5112748;28;20205;-88
2022/09/17 08:33:56;;;;;;;4.33;1.10;;;12.80;99.90;;;;;;5113520;28;20191;-86
2022/09/17 08:36:25;;;;;;;6.27;1.30;;;12.70;99.90;;;;;;5112915;28;20604;-89
2022/09/17 08:38:53;;;;;;;3.73;1.13;;;12.70;99.90;;;;;;5113600;28;20588;-88
2022/09/17 08:41:26;;;;;;;8.63;1.40;;;12.60;99.90;;;;;;5113296;28;20198;-89
2022/09/17 08:44:06;;;;;;;1.67;1.00;;;12.30;99.90;;;;;;5112972;28;20212;-88
2022/09/17 08:46:39;;;;;;;3.10;0.97;;;12.20;99.90;;;;;;5112795;28;20203;-88
2022/09/17 08:49:14;;;;;;;2.07;0.80;;;12.20;99.90;;;;;;5114148;28;20202;-87
2022/09/17 08:51:53;;;;;;;3.97;1.50;;;12.20;99.90;;;;;;5113189;28;20200;-88
2022/09/17 08:54:27;;;;;;;3.73;0.93;;;12.20;99.90;;;;;;5113610;28;20217;-87
2022/09/17 08:57:08;;;;;;;6.20;1.20;;;12.10;99.90;;;;;;5114278;28;20186;-92
2022/09/17 08:59:43;;;;;;;3.10;1.40;;;12.20;99.90;;;;;;5113661;28;20226;-90
2022/09/17 09:02:23;;;;;;;9.30;1.13;;;12.30;99.90;;;;;;5114196;28;20191;-88
2022/09/17 09:05:01;;;;;;;6.13;1.47;;;12.50;99.90;;;;;;5116694;28;20294;-90
2022/09/17 09:07:32;;;;;;;4.90;1.00;;;12.80;99.90;;;;;;5113595;28;20208;-90
2022/09/17 09:10:08;;;;;;;2.77;1.40;;;12.80;99.90;;;;;;5114231;28;20206;-89
2022/09/17 09:12:37;;;;;;;4.20;1.30;;;13.00;99.90;;;;;;5115939;28;20651;-88
2022/09/17 09:15:23;;;;;;;3.50;1.30;;;13.10;99.90;;;;;;5121038;28;20215;-87
2022/09/17 09:17:57;;;;;;;3.93;1.10;;;13.00;99.90;;;;;;5114937;28;20204;-88
2022/09/17 09:20:31;;;;;;;4.13;1.20;;;12.80;99.90;;;;;;5117023;28;20219;-88
2022/09/17 09:23:06;;;;;;;3.40;1.00;;;12.80;99.90;;;;;;5125893;27;20190;-89
2022/09/17 09:25:39;;;;;;;2.43;0.70;;;12.80;99.90;;;;;;5117452;28;20192;-87
2022/09/17 09:28:17;;;;;;;4.23;1.37;;;12.70;99.90;;;;;;5115500;28;20565;-85
2022/09/17 09:30:57;;;;;;;4.27;1.30;;;12.70;99.90;;;;;;5122004;27;20199;-85
2022/09/17 09:33:30;;;;;;;4.30;1.20;;;12.70;99.90;;;;;;5123552;27;20646;-85
2022/09/17 09:35:57;;;;;;;4.83;1.00;;;12.80;99.90;;;;;;5124099;27;20207;-85
2022/09/17 09:38:32;;;;;;;5.75;1.35;;;12.90;99.90;;;;;;5129089;27;20429;-86
2022/09/17 09:41:07;;;;;;;2.20;0.93;;;13.10;99.90;;;;;;5114742;28;20698;-86
2022/09/17 09:43:40;;;;;;;4.93;1.17;;;13.20;99.90;;;;;;5115606;28;20198;-86
2022/09/17 09:46:31;;;;;;;5.93;1.17;;;13.20;99.90;;;;;;5115947;28;20249;-86
2022/09/17 09:49:07;;;;;;;1.83;0.73;;;13.20;99.90;;;;;;5115507;28;20688;-85
2022/09/17 09:51:48;;;;;;;2.50;0.70;;;13.10;99.90;;;;;;5115799;28;20202;-86
2022/09/17 09:54:27;;;;;;;2.53;0.83;;;12.90;99.90;;;;;;5115877;28;20625;-86
2022/09/17 09:56:57;;;;;;;4.13;1.20;;;12.70;99.90;;;;;;5115689;28;20201;-85
2022/09/17 09:59:24;;;;;;;5.03;1.03;;;12.60;99.90;;;;;;5116273;28;20294;-88
2022/09/17 10:01:53;;;;;;;3.00;1.00;;;12.40;99.90;;;;;;5115865;28;20919;-86
2022/09/17 10:04:23;;;;;;;6.10;1.10;;;12.30;99.90;;;;;;5116217;28;20200;-87
2022/09/17 10:06:52;;;;;;;0.80;0.53;;;12.10;99.90;;;;;;5116186;28;20201;-86
2022/09/17 10:09:21;;;;;;;3.63;0.63;;;12.00;99.90;;;;;;5116202;28;20197;-89
2022/09/17 10:12:01;;;;;;;1.90;1.13;;;11.80;99.90;;;;;;5115729;28;20230;-93
2022/09/17 10:14:30;;;;;;;4.53;0.70;;;11.70;99.90;;;;;;5116918;28;20268;-92
2022/09/17 10:17:19;;;;;;;2.90;0.60;;;11.70;99.90;;;;;;5116166;28;20567;-91
2022/09/17 10:20:09;;;;;;;1.30;0.70;;;11.70;99.90;;;;;;5116205;28;20263;-93
2022/09/17 10:22:37;;;;;;;1.93;0.97;;;11.60;99.90;;;;;;5116240;28;20196;-92
2022/09/17 10:25:06;;;;;;;3.27;1.20;;;11.60;99.90;;;;;;5116248;28;20227;-92
2022/09/17 10:27:35;;;;;;;3.13;1.00;;;11.60;99.90;;;;;;5114629;28;20429;-89
2022/09/17 10:30:14;;;;;;;3.33;0.90;;;11.60;99.90;;;;;;5116633;28;20528;-90
2022/09/17 10:32:42;;;;;;;3.13;0.87;;;11.60;99.90;;;;;;5115560;28;20234;-89
2022/09/17 10:35:26;;;;;;;2.03;0.90;;;11.50;99.90;;;;;;5115740;28;20572;-92
2022/09/17 10:37:54;;;;;;;2.17;0.90;;;11.50;99.90;;;;;;5115959;28;20204;-93
2022/09/17 10:40:32;;;;;;;2.33;0.93;;;11.50;99.90;;;;;;5116387;28;20319;-92
2022/09/17 10:43:23;;;;;;;3.47;0.70;;;11.60;99.90;;;;;;5116069;28;20204;-92
2022/09/17 10:45:58;;;;;;;5.50;1.00;;;11.60;99.90;;;;;;5100906;28;20200;-92
2022/09/17 10:48:30;;;;;;;4.73;1.13;;;11.60;99.90;;;;;;5116345;28;20253;-93
2022/09/17 10:50:58;;;;;;;3.00;1.73;;;11.80;99.90;;;;;;5115767;28;20674;-91
2022/09/17 10:53:26;;;;;;;1.80;0.87;;;12.00;99.90;;;;;;5116195;28;20593;-91
2022/09/17 10:55:59;;;;;;;4.10;1.27;;;12.00;99.90;;;;;;5115611;28;20277;-90
2022/09/17 10:58:42;;;;;;;2.93;1.30;;;12.20;99.90;;;;;;5115208;28;20209;-91
2022/09/17 11:01:21;;;;;;;1.37;1.20;;;12.40;99.90;;;;;;5115270;28;20241;-89
2022/09/17 11:04:25;;;;;;;4.53;1.30;;;12.60;99.90;;;;;;5115451;28;20199;-88
2022/09/17 11:07:14;;;;;;;4.33;1.13;;;12.60;99.90;;;;;;5052619;28;20206;-87
2022/09/17 11:09:52;;;;;;;4.00;1.53;;;12.60;99.90;;;;;;5112385;28;20668;-86
2022/09/17 11:12:36;;;;;;;3.50;1.30;;;12.60;99.90;;;;;;5114989;28;20195;-93
2022/09/17 11:15:17;;;;;;;5.67;1.27;;;12.70;99.90;;;;;;5114636;28;20218;-89
2022/09/17 11:18:07;;;;;;;5.90;1.57;;;12.70;99.90;;;;;;5114594;28;20205;-88
2022/09/17 11:20:55;;;;;;;7.17;1.50;;;12.80;99.90;;;;;;5114065;28;20225;-89
2022/09/17 11:23:42;;;;;;;6.53;1.43;;;12.90;99.90;;;;;;5115167;28;20222;-87
2022/09/17 11:26:19;;;;;;;5.43;1.60;;;12.90;99.90;;;;;;5113977;28;20204;-85
2022/09/17 11:28:59;;;;;;;6.03;1.43;;;13.00;99.90;;;;;;5113948;28;20548;-86
2022/09/17 11:31:34;;;;;;;6.93;1.27;;;12.70;99.90;;;;;;5113792;28;21044;-85
2022/09/17 11:34:23;;;;;;;3.97;1.10;;;12.40;99.90;;;;;;5114134;28;20185;-86
2022/09/17 11:36:58;;;;;;;7.53;1.53;;;12.20;99.90;;;;;;5113383;28;20205;-85
2022/09/17 11:39:31;;;;;;;10.00;1.73;;;12.10;99.90;;;;;;5113260;28;20185;-85
2022/09/17 11:42:01;;;;;;;7.33;1.57;;;12.20;99.90;;;;;;5113799;28;20229;-87
2022/09/17 11:44:32;;;;;;;8.50;1.70;;;12.40;99.90;;;;;;5114252;28;20207;-87
2022/09/17 11:47:07;;;;;;;6.97;1.63;;;12.50;99.90;;;;;;5113806;28;20639;-86
2022/09/17 11:49:40;;;;;;;4.17;1.40;;;12.60;99.90;;;;;;5113732;28;20198;-87
2022/09/17 11:52:16;;;;;;;8.70;1.53;;;12.80;99.90;;;;;;5113768;28;20206;-86
2022/09/17 11:54:50;;;;;;;4.17;1.37;;;12.90;99.90;;;;;;5113431;28;20213;-86
2022/09/17 11:57:21;;;;;;;5.00;1.43;;;12.70;99.90;;;;;;5113804;28;20654;-87
2022/09/17 11:59:53;;;;;;;11.53;2.50;;;12.60;99.90;;;;;;5114007;28;20210;-86
2022/09/17 12:02:27;;;;;;;11.47;2.07;;;12.50;99.90;;;;;;5113758;28;20201;-86
2022/09/17 12:05:01;;;;;;;6.70;1.80;;;12.50;99.90;;;;;;5113818;28;20645;-85
2022/09/17 12:07:36;;;;;;;9.80;2.70;;;12.60;99.90;;;;;;5112493;28;20455;-85
2022/09/17 12:10:23;;;;;;;8.13;2.30;;;12.90;99.90;;;;;;5113123;28;20559;-84
2022/09/17 12:12:59;;;;;;;5.60;2.00;;;13.10;99.90;;;;;;5113399;28;20192;-84
2022/09/17 12:15:29;;;;;;;7.17;1.90;;;13.40;99.90;;;;;;5113290;28;20706;-84
2022/09/17 12:18:03;;;;;;;8.30;1.73;;;13.70;99.90;;;;;;5113895;28;20673;-85
2022/09/17 12:20:35;;;;;;;6.77;2.10;;;13.90;99.90;;;;;;5113290;28;20662;-84
2022/09/17 12:23:10;;;;;;;6.40;1.83;;;14.00;99.90;;;;;;5113133;28;20204;-86
2022/09/17 12:25:48;;;;;;;5.53;1.30;;;14.30;99.90;;;;;;5113597;28;20303;-86
2022/09/17 12:28:21;;;;;;;8.13;1.97;;;14.40;99.90;;;;;;5113228;28;20207;-86
2022/09/17 12:30:57;;;;;;;7.93;1.50;;;14.40;99.90;;;;;;5113918;28;20246;-87
2022/09/17 12:33:30;;;;;;;5.13;1.50;;;14.50;99.90;;;;;;5116392;28;20208;-86
2022/09/17 12:36:16;;;;;;;7.37;1.90;;;14.60;99.90;;;;;;5125169;27;20231;-85
2022/09/17 12:39:00;;;;;;;6.90;2.23;;;14.70;99.90;;;;;;5129071;28;20203;-88
2022/09/17 12:41:35;;;;;;;7.43;1.43;;;14.80;99.90;;;;;;5126376;28;20239;-87
2022/09/17 12:44:15;;;;;;;9.20;2.20;;;14.90;99.90;;;;;;5133590;28;20207;-87
2022/09/17 12:46:56;;;;;;;6.53;1.50;;;15.00;99.90;;;;;;5133626;27;20204;-87
2022/09/17 12:49:50;;;;;;;7.17;1.90;;;15.00;99.90;;;;;;5133686;28;20210;-87
2022/09/17 12:52:28;;;;;;;5.87;1.40;;;15.10;99.90;;;;;;5134072;27;20577;-87
2022/09/17 12:55:22;;;;;;;9.23;1.70;;;15.00;99.90;;;;;;5137565;27;20687;-88
2022/09/17 12:57:57;;;;;;;10.02;1.83;;;15.10;99.90;;;;;;5137331;27;20949;-88
2022/09/17 13:00:25;;;;;;;8.77;1.83;;;15.10;99.90;;;;;;5137377;27;20199;-87
2022/09/17 13:03:02;;;;;;;7.30;2.00;;;15.20;99.90;;;;;;5136848;27;20204;-87
2022/09/17 13:06:05;;;;;;;12.00;2.27;;;15.30;99.90;;;;;;5137053;27;20204;-87
2022/09/17 13:08:52;;;;;;;6.67;1.80;;;15.50;99.90;;;;;;5119804;27;20587;-84
2022/09/17 13:11:49;;;;;;;10.87;2.10;;;15.70;99.90;;;;;;5137299;27;20563;-83
2022/09/17 13:14:23;;;;;;;6.57;2.23;;;15.90;99.90;;;;;;5136820;27;20716;-81